sensor_id;sensor_type;location;lat;lon;timestamp;P1;durP1;ratioP1;P2;durP2;ratioP2
75608;SDS011;64194;51.044;13.780;2022-11-24T00:01:46;30.23;;;13.70;;
75608;SDS011;64194;51.044;13.780;2022-11-24T00:05:48;36.65;;;13.93;;
75608;SDS011;64194;51.044;13.780;2022-11-24T00:09:50;29.63;;;13.10;;
75608;SDS011;64194;51.044;13.780;2022-11-24T00:13:52;31.25;;;12.75;;
75608;SDS011;64194;51.044;13.780;2022-11-24T00:26:58;31.02;;;13.88;;
75608;SDS011;64194;51.044;13.780;2022-11-24T00:31:00;29.58;;;13.45;;
75608;SDS011;64194;51.044;13.780;2022-11-24T00:35:03;31.45;;;13.85;;
75608;SDS011;64194;51.044;13.780;2022-11-24T00:39:12;30.52;;;13.15;;
75608;SDS011;64194;51.044;13.780;2022-11-24T00:52:33;28.88;;;12.65;;
75608;SDS011;64194;51.044;13.780;2022-11-24T00:56:34;32.70;;;12.30;;
75608;SDS011;64194;51.044;13.780;2022-11-24T01:00:36;28.65;;;12.52;;
75608;SDS011;64194;51.044;13.780;2022-11-24T01:04:38;34.17;;;12.35;;
75608;SDS011;64194;51.044;13.780;2022-11-24T01:08:40;29.63;;;13.05;;
75608;SDS011;64194;51.044;13.780;2022-11-24T01:12:42;31.13;;;12.82;;
75608;SDS011;64194;51.044;13.780;2022-11-24T01:16:44;29.20;;;12.45;;
75608;SDS011;64194;51.044;13.780;2022-11-24T01:20:46;31.95;;;13.45;;
75608;SDS011;64194;51.044;13.780;2022-11-24T01:24:47;27.35;;;12.15;;
75608;SDS011;64194;51.044;13.780;2022-11-24T01:28:53;32.70;;;14.18;;
75608;SDS011;64194;51.044;13.780;2022-11-24T01:32:56;28.27;;;12.13;;
75608;SDS011;64194;51.044;13.780;2022-11-24T01:36:57;31.70;;;13.77;;
75608;SDS011;64194;51.044;13.780;2022-11-24T01:41:20;26.65;;;11.77;;
75608;SDS011;64194;51.044;13.780;2022-11-24T01:49:45;29.55;;;12.98;;
75608;SDS011;64194;51.044;13.780;2022-11-24T01:53:56;30.85;;;12.82;;
75608;SDS011;64194;51.044;13.780;2022-11-24T01:58:05;27.40;;;11.48;;
75608;SDS011;64194;51.044;13.780;2022-11-24T02:02:19;28.00;;;13.93;;
75608;SDS011;64194;51.044;13.780;2022-11-24T02:06:22;31.77;;;13.68;;
75608;SDS011;64194;51.044;13.780;2022-11-24T02:10:28;32.40;;;11.73;;
75608;SDS011;64194;51.044;13.780;2022-11-24T02:14:30;32.97;;;12.65;;
75608;SDS011;64194;51.044;13.780;2022-11-24T02:18:32;29.98;;;12.50;;
75608;SDS011;64194;51.044;13.780;2022-11-24T02:26:51;32.45;;;12.75;;
75608;SDS011;64194;51.044;13.780;2022-11-24T02:30:53;32.65;;;13.07;;
75608;SDS011;64194;51.044;13.780;2022-11-24T02:35:03;30.20;;;11.40;;
75608;SDS011;64194;51.044;13.780;2022-11-24T02:39:09;33.60;;;12.32;;
75608;SDS011;64194;51.044;13.780;2022-11-24T02:43:14;32.33;;;12.02;;
75608;SDS011;64194;51.044;13.780;2022-11-24T02:47:18;27.33;;;11.63;;
75608;SDS011;64194;51.044;13.780;2022-11-24T02:51:20;32.08;;;13.02;;
75608;SDS011;64194;51.044;13.780;2022-11-24T02:55:21;30.40;;;12.10;;
75608;SDS011;64194;51.044;13.780;2022-11-24T02:59:25;30.88;;;13.20;;
75608;SDS011;64194;51.044;13.780;2022-11-24T03:03:27;29.98;;;12.70;;
75608;SDS011;64194;51.044;13.780;2022-11-24T03:07:29;26.30;;;11.77;;
75608;SDS011;64194;51.044;13.780;2022-11-24T03:11:30;30.40;;;12.18;;
75608;SDS011;64194;51.044;13.780;2022-11-24T03:15:33;29.35;;;11.73;;
75608;SDS011;64194;51.044;13.780;2022-11-24T03:19:35;26.13;;;11.07;;
75608;SDS011;64194;51.044;13.780;2022-11-24T03:23:37;28.77;;;11.35;;
75608;SDS011;64194;51.044;13.780;2022-11-24T03:27:38;33.17;;;12.00;;
75608;SDS011;64194;51.044;13.780;2022-11-24T03:31:40;30.02;;;12.00;;
75608;SDS011;64194;51.044;13.780;2022-11-24T03:35:42;30.13;;;12.27;;
75608;SDS011;64194;51.044;13.780;2022-11-24T03:39:43;27.38;;;11.02;;
75608;SDS011;64194;51.044;13.780;2022-11-24T03:43:45;35.25;;;12.90;;
75608;SDS011;64194;51.044;13.780;2022-11-24T03:52:48;28.65;;;11.93;;
75608;SDS011;64194;51.044;13.780;2022-11-24T03:56:50;31.10;;;11.77;;
75608;SDS011;64194;51.044;13.780;2022-11-24T04:00:52;32.15;;;12.57;;
75608;SDS011;64194;51.044;13.780;2022-11-24T04:04:54;28.10;;;11.57;;
75608;SDS011;64194;51.044;13.780;2022-11-24T04:08:56;32.28;;;12.27;;
75608;SDS011;64194;51.044;13.780;2022-11-24T04:12:58;27.05;;;11.93;;
75608;SDS011;64194;51.044;13.780;2022-11-24T04:16:59;30.13;;;12.45;;
75608;SDS011;64194;51.044;13.780;2022-11-24T04:21:02;28.92;;;10.52;;
75608;SDS011;64194;51.044;13.780;2022-11-24T04:25:04;29.15;;;11.18;;
75608;SDS011;64194;51.044;13.780;2022-11-24T04:29:07;27.88;;;11.15;;
75608;SDS011;64194;51.044;13.780;2022-11-24T04:33:10;30.40;;;11.05;;
75608;SDS011;64194;51.044;13.780;2022-11-24T04:37:11;27.17;;;11.00;;
75608;SDS011;64194;51.044;13.780;2022-11-24T04:41:13;32.33;;;10.63;;
75608;SDS011;64194;51.044;13.780;2022-11-24T04:45:14;31.55;;;11.80;;
75608;SDS011;64194;51.044;13.780;2022-11-24T04:49:16;29.40;;;11.55;;
75608;SDS011;64194;51.044;13.780;2022-11-24T04:53:18;27.00;;;10.63;;
75608;SDS011;64194;51.044;13.780;2022-11-24T04:57:21;31.05;;;12.27;;
75608;SDS011;64194;51.044;13.780;2022-11-24T05:01:24;26.52;;;10.20;;
75608;SDS011;64194;51.044;13.780;2022-11-24T05:05:26;31.17;;;11.48;;
75608;SDS011;64194;51.044;13.780;2022-11-24T05:09:28;29.73;;;12.93;;
75608;SDS011;64194;51.044;13.780;2022-11-24T05:13:51;22.23;;;9.75;;
75608;SDS011;64194;51.044;13.780;2022-11-24T05:17:53;31.20;;;10.90;;
75608;SDS011;64194;51.044;13.780;2022-11-24T05:21:55;29.52;;;11.50;;
75608;SDS011;64194;51.044;13.780;2022-11-24T05:25:58;28.40;;;10.60;;
75608;SDS011;64194;51.044;13.780;2022-11-24T05:30:01;27.15;;;10.57;;
75608;SDS011;64194;51.044;13.780;2022-11-24T05:34:03;29.38;;;10.82;;
75608;SDS011;64194;51.044;13.780;2022-11-24T05:38:05;23.30;;;9.55;;
75608;SDS011;64194;51.044;13.780;2022-11-24T05:42:07;25.05;;;10.60;;
75608;SDS011;64194;51.044;13.780;2022-11-24T05:46:27;26.67;;;9.20;;
75608;SDS011;64194;51.044;13.780;2022-11-24T05:50:28;22.23;;;10.55;;
75608;SDS011;64194;51.044;13.780;2022-11-24T05:54:30;26.48;;;10.48;;
75608;SDS011;64194;51.044;13.780;2022-11-24T05:58:32;29.60;;;10.98;;
75608;SDS011;64194;51.044;13.780;2022-11-24T06:02:34;23.05;;;9.18;;
75608;SDS011;64194;51.044;13.780;2022-11-24T06:06:35;26.13;;;10.40;;
75608;SDS011;64194;51.044;13.780;2022-11-24T06:10:37;22.80;;;9.63;;
75608;SDS011;64194;51.044;13.780;2022-11-24T06:14:39;23.38;;;9.25;;
75608;SDS011;64194;51.044;13.780;2022-11-24T06:18:41;25.40;;;9.75;;
75608;SDS011;64194;51.044;13.780;2022-11-24T06:22:42;21.60;;;8.82;;
75608;SDS011;64194;51.044;13.780;2022-11-24T06:26:44;22.02;;;9.50;;
75608;SDS011;64194;51.044;13.780;2022-11-24T06:30:46;21.65;;;8.80;;
75608;SDS011;64194;51.044;13.780;2022-11-24T06:34:47;25.33;;;9.82;;
75608;SDS011;64194;51.044;13.780;2022-11-24T06:38:49;21.02;;;9.00;;
75608;SDS011;64194;51.044;13.780;2022-11-24T06:42:51;20.20;;;9.23;;
75608;SDS011;64194;51.044;13.780;2022-11-24T06:46:55;20.48;;;9.40;;
75608;SDS011;64194;51.044;13.780;2022-11-24T06:50:57;22.63;;;8.93;;
75608;SDS011;64194;51.044;13.780;2022-11-24T06:55:00;22.27;;;9.00;;
75608;SDS011;64194;51.044;13.780;2022-11-24T06:59:01;20.83;;;9.13;;
75608;SDS011;64194;51.044;13.780;2022-11-24T07:03:03;22.33;;;8.70;;
75608;SDS011;64194;51.044;13.780;2022-11-24T07:07:05;21.58;;;9.20;;
75608;SDS011;64194;51.044;13.780;2022-11-24T07:11:07;20.17;;;8.77;;
75608;SDS011;64194;51.044;13.780;2022-11-24T07:15:11;23.00;;;10.77;;
75608;SDS011;64194;51.044;13.780;2022-11-24T07:19:12;19.33;;;9.02;;
75608;SDS011;64194;51.044;13.780;2022-11-24T07:23:14;23.55;;;10.57;;
75608;SDS011;64194;51.044;13.780;2022-11-24T07:27:16;25.45;;;10.75;;
75608;SDS011;64194;51.044;13.780;2022-11-24T07:31:19;21.20;;;9.40;;
75608;SDS011;64194;51.044;13.780;2022-11-24T07:35:22;25.02;;;10.27;;
75608;SDS011;64194;51.044;13.780;2022-11-24T07:39:23;23.45;;;11.52;;
75608;SDS011;64194;51.044;13.780;2022-11-24T07:43:26;25.40;;;10.02;;
75608;SDS011;64194;51.044;13.780;2022-11-24T07:47:29;26.45;;;11.25;;
75608;SDS011;64194;51.044;13.780;2022-11-24T07:51:30;34.33;;;12.88;;
75608;SDS011;64194;51.044;13.780;2022-11-24T07:55:32;21.42;;;10.80;;
75608;SDS011;64194;51.044;13.780;2022-11-24T07:59:33;22.60;;;10.77;;
75608;SDS011;64194;51.044;13.780;2022-11-24T08:03:35;25.40;;;11.07;;
75608;SDS011;64194;51.044;13.780;2022-11-24T08:07:37;26.75;;;12.02;;
75608;SDS011;64194;51.044;13.780;2022-11-24T08:11:39;26.33;;;12.75;;
75608;SDS011;64194;51.044;13.780;2022-11-24T08:15:41;25.17;;;11.05;;
75608;SDS011;64194;51.044;13.780;2022-11-24T08:19:42;23.67;;;10.93;;
75608;SDS011;64194;51.044;13.780;2022-11-24T08:23:44;25.10;;;11.45;;
75608;SDS011;64194;51.044;13.780;2022-11-24T08:33:40;27.10;;;10.90;;
75608;SDS011;64194;51.044;13.780;2022-11-24T08:37:44;23.50;;;10.55;;
75608;SDS011;64194;51.044;13.780;2022-11-24T08:41:50;23.10;;;9.30;;
75608;SDS011;64194;51.044;13.780;2022-11-24T08:46:07;21.85;;;9.93;;
75608;SDS011;64194;51.044;13.780;2022-11-24T08:50:23;22.80;;;10.95;;
75608;SDS011;64194;51.044;13.780;2022-11-24T08:54:32;25.08;;;10.63;;
75608;SDS011;64194;51.044;13.780;2022-11-24T08:58:37;21.63;;;10.52;;
75608;SDS011;64194;51.044;13.780;2022-11-24T09:08:02;21.08;;;9.55;;
75608;SDS011;64194;51.044;13.780;2022-11-24T09:12:12;22.33;;;10.02;;
75608;SDS011;64194;51.044;13.780;2022-11-24T09:16:24;23.48;;;10.57;;
75608;SDS011;64194;51.044;13.780;2022-11-24T09:20:30;24.23;;;9.77;;
75608;SDS011;64194;51.044;13.780;2022-11-24T09:24:32;22.33;;;10.13;;
75608;SDS011;64194;51.044;13.780;2022-11-24T09:28:36;23.15;;;10.13;;
75608;SDS011;64194;51.044;13.780;2022-11-24T09:42:13;20.63;;;10.02;;
75608;SDS011;64194;51.044;13.780;2022-11-24T09:59:28;19.15;;;9.20;;
75608;SDS011;64194;51.044;13.780;2022-11-24T10:03:46;21.48;;;10.88;;
75608;SDS011;64194;51.044;13.780;2022-11-24T10:08:17;20.27;;;9.88;;
75608;SDS011;64194;51.044;13.780;2022-11-24T10:12:30;22.27;;;9.23;;
75608;SDS011;64194;51.044;13.780;2022-11-24T10:21:31;23.02;;;10.27;;
75608;SDS011;64194;51.044;13.780;2022-11-24T10:29:52;22.52;;;10.50;;
75608;SDS011;64194;51.044;13.780;2022-11-24T10:34:00;23.10;;;11.18;;
75608;SDS011;64194;51.044;13.780;2022-11-24T10:38:37;24.00;;;10.93;;
75608;SDS011;64194;51.044;13.780;2022-11-24T10:42:48;22.45;;;10.13;;
75608;SDS011;64194;51.044;13.780;2022-11-24T10:46:51;23.50;;;10.60;;
75608;SDS011;64194;51.044;13.780;2022-11-24T10:59:53;22.27;;;10.23;;
75608;SDS011;64194;51.044;13.780;2022-11-24T11:03:57;24.77;;;10.82;;
75608;SDS011;64194;51.044;13.780;2022-11-24T11:12:45;24.23;;;11.38;;
75608;SDS011;64194;51.044;13.780;2022-11-24T11:16:54;22.17;;;10.45;;
75608;SDS011;64194;51.044;13.780;2022-11-24T11:20:59;23.52;;;10.68;;
75608;SDS011;64194;51.044;13.780;2022-11-24T11:25:17;22.75;;;11.07;;
75608;SDS011;64194;51.044;13.780;2022-11-24T11:29:24;19.25;;;9.88;;
75608;SDS011;64194;51.044;13.780;2022-11-24T11:33:53;19.65;;;9.32;;
75608;SDS011;64194;51.044;13.780;2022-11-24T11:38:37;22.50;;;10.60;;
75608;SDS011;64194;51.044;13.780;2022-11-24T11:42:41;16.73;;;8.27;;
75608;SDS011;64194;51.044;13.780;2022-11-24T11:47:08;19.83;;;9.48;;
75608;SDS011;64194;51.044;13.780;2022-11-24T11:51:38;20.98;;;10.30;;
75608;SDS011;64194;51.044;13.780;2022-11-24T12:00:24;20.25;;;10.00;;
75608;SDS011;64194;51.044;13.780;2022-11-24T12:09:16;21.55;;;11.10;;
75608;SDS011;64194;51.044;13.780;2022-11-24T12:18:48;16.95;;;9.05;;
75608;SDS011;64194;51.044;13.780;2022-11-24T12:27:37;20.17;;;9.93;;
75608;SDS011;64194;51.044;13.780;2022-11-24T13:00:17;24.20;;;10.82;;
75608;SDS011;64194;51.044;13.780;2022-11-24T13:04:47;18.65;;;9.32;;
75608;SDS011;64194;51.044;13.780;2022-11-24T13:09:14;22.35;;;9.68;;
75608;SDS011;64194;51.044;13.780;2022-11-24T13:13:16;19.45;;;10.40;;
75608;SDS011;64194;51.044;13.780;2022-11-24T13:17:31;21.55;;;10.52;;
75608;SDS011;64194;51.044;13.780;2022-11-24T13:26:54;23.30;;;10.27;;
75608;SDS011;64194;51.044;13.780;2022-11-24T13:31:26;20.27;;;9.95;;
75608;SDS011;64194;51.044;13.780;2022-11-24T13:35:28;20.35;;;9.80;;
75608;SDS011;64194;51.044;13.780;2022-11-24T13:57:52;17.63;;;9.80;;
75608;SDS011;64194;51.044;13.780;2022-11-24T14:02:20;19.63;;;9.85;;
75608;SDS011;64194;51.044;13.780;2022-11-24T14:11:14;19.40;;;10.23;;
75608;SDS011;64194;51.044;13.780;2022-11-24T14:20:08;20.77;;;9.70;;
75608;SDS011;64194;51.044;13.780;2022-11-24T14:24:32;21.98;;;11.10;;
75608;SDS011;64194;51.044;13.780;2022-11-24T14:28:44;19.73;;;9.52;;
75608;SDS011;64194;51.044;13.780;2022-11-24T14:42:23;22.10;;;10.52;;
75608;SDS011;64194;51.044;13.780;2022-11-24T14:46:27;22.70;;;10.57;;
75608;SDS011;64194;51.044;13.780;2022-11-24T14:50:29;21.63;;;10.40;;
75608;SDS011;64194;51.044;13.780;2022-11-24T14:54:31;23.55;;;11.15;;
75608;SDS011;64194;51.044;13.780;2022-11-24T14:58:43;23.98;;;11.82;;
75608;SDS011;64194;51.044;13.780;2022-11-24T15:02:48;23.45;;;10.57;;
75608;SDS011;64194;51.044;13.780;2022-11-24T15:07:04;26.52;;;12.45;;
75608;SDS011;64194;51.044;13.780;2022-11-24T15:11:08;58.22;;;29.02;;
75608;SDS011;64194;51.044;13.780;2022-11-24T15:19:13;26.48;;;11.98;;
75608;SDS011;64194;51.044;13.780;2022-11-24T15:23:30;24.27;;;12.63;;
75608;SDS011;64194;51.044;13.780;2022-11-24T15:31:46;23.45;;;11.43;;
75608;SDS011;64194;51.044;13.780;2022-11-24T15:35:53;25.33;;;12.35;;
75608;SDS011;64194;51.044;13.780;2022-11-24T15:44:21;23.02;;;11.60;;
75608;SDS011;64194;51.044;13.780;2022-11-24T15:53:20;24.67;;;12.00;;
75608;SDS011;64194;51.044;13.780;2022-11-24T15:57:24;26.17;;;12.73;;
75608;SDS011;64194;51.044;13.780;2022-11-24T16:15:36;27.45;;;13.38;;
75608;SDS011;64194;51.044;13.780;2022-11-24T16:19:42;24.88;;;12.98;;
75608;SDS011;64194;51.044;13.780;2022-11-24T16:29:43;27.08;;;13.98;;
75608;SDS011;64194;51.044;13.780;2022-11-24T16:33:51;27.50;;;13.98;;
75608;SDS011;64194;51.044;13.780;2022-11-24T16:37:53;28.50;;;13.77;;
75608;SDS011;64194;51.044;13.780;2022-11-24T16:41:55;30.00;;;14.75;;
75608;SDS011;64194;51.044;13.780;2022-11-24T16:46:04;30.40;;;15.13;;
75608;SDS011;64194;51.044;13.780;2022-11-24T16:50:20;30.98;;;14.27;;
75608;SDS011;64194;51.044;13.780;2022-11-24T16:54:22;29.33;;;14.02;;
75608;SDS011;64194;51.044;13.780;2022-11-24T16:58:24;34.80;;;14.50;;
75608;SDS011;64194;51.044;13.780;2022-11-24T17:02:25;28.83;;;14.23;;
75608;SDS011;64194;51.044;13.780;2022-11-24T17:06:27;27.75;;;14.00;;
75608;SDS011;64194;51.044;13.780;2022-11-24T17:10:29;29.13;;;14.45;;
75608;SDS011;64194;51.044;13.780;2022-11-24T17:14:31;29.52;;;15.43;;
75608;SDS011;64194;51.044;13.780;2022-11-24T17:18:33;29.38;;;13.77;;
75608;SDS011;64194;51.044;13.780;2022-11-24T17:22:35;27.83;;;14.60;;
75608;SDS011;64194;51.044;13.780;2022-11-24T17:26:37;24.27;;;12.43;;
75608;SDS011;64194;51.044;13.780;2022-11-24T17:30:38;25.15;;;14.50;;
75608;SDS011;64194;51.044;13.780;2022-11-24T17:34:40;26.73;;;13.13;;
75608;SDS011;64194;51.044;13.780;2022-11-24T17:38:44;25.63;;;12.82;;
75608;SDS011;64194;51.044;13.780;2022-11-24T17:42:46;29.65;;;14.38;;
75608;SDS011;64194;51.044;13.780;2022-11-24T17:46:47;26.38;;;13.57;;
75608;SDS011;64194;51.044;13.780;2022-11-24T17:55:03;26.92;;;13.68;;
75608;SDS011;64194;51.044;13.780;2022-11-24T17:59:05;28.45;;;15.35;;
75608;SDS011;64194;51.044;13.780;2022-11-24T18:03:07;30.17;;;14.60;;
75608;SDS011;64194;51.044;13.780;2022-11-24T18:07:09;28.77;;;13.23;;
75608;SDS011;64194;51.044;13.780;2022-11-24T18:11:17;26.35;;;13.85;;
75608;SDS011;64194;51.044;13.780;2022-11-24T18:15:27;26.95;;;14.52;;
75608;SDS011;64194;51.044;13.780;2022-11-24T18:19:30;31.15;;;16.52;;
75608;SDS011;64194;51.044;13.780;2022-11-24T18:23:32;35.22;;;15.95;;
75608;SDS011;64194;51.044;13.780;2022-11-24T18:27:36;26.92;;;14.13;;
75608;SDS011;64194;51.044;13.780;2022-11-24T18:31:40;29.85;;;15.00;;
75608;SDS011;64194;51.044;13.780;2022-11-24T18:35:42;33.67;;;15.07;;
75608;SDS011;64194;51.044;13.780;2022-11-24T18:39:45;30.67;;;14.82;;
75608;SDS011;64194;51.044;13.780;2022-11-24T18:43:49;31.65;;;16.40;;
75608;SDS011;64194;51.044;13.780;2022-11-24T18:47:53;33.20;;;14.45;;
75608;SDS011;64194;51.044;13.780;2022-11-24T18:51:57;28.05;;;15.23;;
75608;SDS011;64194;51.044;13.780;2022-11-24T18:56:00;34.00;;;15.65;;
75608;SDS011;64194;51.044;13.780;2022-11-24T19:00:04;33.53;;;15.02;;
75608;SDS011;64194;51.044;13.780;2022-11-24T19:04:07;28.33;;;15.23;;
75608;SDS011;64194;51.044;13.780;2022-11-24T19:08:13;32.95;;;17.23;;
75608;SDS011;64194;51.044;13.780;2022-11-24T19:12:16;35.60;;;16.05;;
75608;SDS011;64194;51.044;13.780;2022-11-24T19:16:18;30.10;;;15.68;;
75608;SDS011;64194;51.044;13.780;2022-11-24T19:20:23;30.65;;;14.52;;
75608;SDS011;64194;51.044;13.780;2022-11-24T19:24:25;32.28;;;15.23;;
75608;SDS011;64194;51.044;13.780;2022-11-24T19:28:27;33.63;;;16.52;;
75608;SDS011;64194;51.044;13.780;2022-11-24T19:32:29;30.42;;;15.77;;
75608;SDS011;64194;51.044;13.780;2022-11-24T19:36:31;33.40;;;17.08;;
75608;SDS011;64194;51.044;13.780;2022-11-24T19:40:33;32.85;;;16.08;;
75608;SDS011;64194;51.044;13.780;2022-11-24T19:44:37;31.10;;;16.33;;
75608;SDS011;64194;51.044;13.780;2022-11-24T19:48:39;30.13;;;15.13;;
75608;SDS011;64194;51.044;13.780;2022-11-24T19:52:45;34.05;;;16.33;;
75608;SDS011;64194;51.044;13.780;2022-11-24T19:56:48;32.58;;;16.67;;
75608;SDS011;64194;51.044;13.780;2022-11-24T20:00:50;33.03;;;16.40;;
75608;SDS011;64194;51.044;13.780;2022-11-24T20:04:52;29.83;;;15.10;;
75608;SDS011;64194;51.044;13.780;2022-11-24T20:08:56;34.53;;;17.45;;
75608;SDS011;64194;51.044;13.780;2022-11-24T20:13:03;28.88;;;14.95;;
75608;SDS011;64194;51.044;13.780;2022-11-24T20:17:05;28.08;;;16.13;;
75608;SDS011;64194;51.044;13.780;2022-11-24T20:21:07;30.42;;;16.45;;
75608;SDS011;64194;51.044;13.780;2022-11-24T20:25:20;28.05;;;15.57;;
75608;SDS011;64194;51.044;13.780;2022-11-24T20:29:22;30.88;;;15.63;;
75608;SDS011;64194;51.044;13.780;2022-11-24T20:33:25;28.98;;;14.65;;
75608;SDS011;64194;51.044;13.780;2022-11-24T20:37:26;32.70;;;16.08;;
75608;SDS011;64194;51.044;13.780;2022-11-24T20:41:31;29.42;;;14.85;;
75608;SDS011;64194;51.044;13.780;2022-11-24T20:45:38;33.05;;;14.63;;
75608;SDS011;64194;51.044;13.780;2022-11-24T20:49:43;31.33;;;14.85;;
75608;SDS011;64194;51.044;13.780;2022-11-24T20:53:44;27.45;;;13.10;;
75608;SDS011;64194;51.044;13.780;2022-11-24T20:57:46;24.55;;;13.98;;
75608;SDS011;64194;51.044;13.780;2022-11-24T21:01:48;29.60;;;14.45;;
75608;SDS011;64194;51.044;13.780;2022-11-24T21:05:55;26.60;;;14.55;;
75608;SDS011;64194;51.044;13.780;2022-11-24T21:09:57;29.70;;;14.93;;
75608;SDS011;64194;51.044;13.780;2022-11-24T21:13:59;25.17;;;14.23;;
75608;SDS011;64194;51.044;13.780;2022-11-24T21:18:01;26.77;;;14.88;;
75608;SDS011;64194;51.044;13.780;2022-11-24T21:22:03;30.38;;;15.82;;
75608;SDS011;64194;51.044;13.780;2022-11-24T21:26:05;29.42;;;15.38;;
75608;SDS011;64194;51.044;13.780;2022-11-24T21:30:13;29.73;;;14.32;;
75608;SDS011;64194;51.044;13.780;2022-11-24T21:34:15;26.98;;;14.52;;
75608;SDS011;64194;51.044;13.780;2022-11-24T21:38:18;26.10;;;14.20;;
75608;SDS011;64194;51.044;13.780;2022-11-24T21:42:20;29.48;;;14.40;;
75608;SDS011;64194;51.044;13.780;2022-11-24T21:46:22;28.60;;;14.48;;
75608;SDS011;64194;51.044;13.780;2022-11-24T21:50:24;28.40;;;13.23;;
75608;SDS011;64194;51.044;13.780;2022-11-24T21:54:26;29.77;;;14.80;;
75608;SDS011;64194;51.044;13.780;2022-11-24T21:58:28;23.13;;;13.85;;
75608;SDS011;64194;51.044;13.780;2022-11-24T22:02:30;23.70;;;14.07;;
75608;SDS011;64194;51.044;13.780;2022-11-24T22:06:31;24.10;;;13.48;;
75608;SDS011;64194;51.044;13.780;2022-11-24T22:10:33;27.42;;;13.32;;
75608;SDS011;64194;51.044;13.780;2022-11-24T22:14:35;27.20;;;12.57;;
75608;SDS011;64194;51.044;13.780;2022-11-24T22:18:41;26.35;;;14.00;;
75608;SDS011;64194;51.044;13.780;2022-11-24T22:31:21;21.35;;;11.73;;
75608;SDS011;64194;51.044;13.780;2022-11-24T22:35:25;19.42;;;10.77;;
75608;SDS011;64194;51.044;13.780;2022-11-24T22:39:28;21.42;;;11.43;;
75608;SDS011;64194;51.044;13.780;2022-11-24T22:48:18;25.17;;;10.90;;
75608;SDS011;64194;51.044;13.780;2022-11-24T23:05:41;21.15;;;11.50;;
75608;SDS011;64194;51.044;13.780;2022-11-24T23:14:16;21.80;;;10.98;;
75608;SDS011;64194;51.044;13.780;2022-11-24T23:18:18;23.60;;;10.63;;
75608;SDS011;64194;51.044;13.780;2022-11-24T23:26:55;21.58;;;11.32;;
75608;SDS011;64194;51.044;13.780;2022-11-24T23:31:00;24.95;;;11.60;;
75608;SDS011;64194;51.044;13.780;2022-11-24T23:35:04;24.92;;;11.43;;
75608;SDS011;64194;51.044;13.780;2022-11-24T23:39:13;19.90;;;11.48;;
75608;SDS011;64194;51.044;13.780;2022-11-24T23:43:16;20.73;;;11.35;;
75608;SDS011;64194;51.044;13.780;2022-11-24T23:56:29;19.58;;;10.35;;
